Time;durP1;ratioP1;P1;durP2;ratioP2;P2;SDS_P1;SDS_P2;PMS_P1;PMS_P2;Temp;Humidity;BMP_temperature;BMP_pressure;BME280_temperature;BME280_humidity;BME280_pressure;Samples;Min_cycle;Max_cycle;Signal;HPM_P1;HPM_P2
2022/12/09 00:00:29;;;;;;;25.63;11.77;;;2.10;99.90;;;;;;5052468;28;20503;-66
2022/12/09 00:02:58;;;;;;;25.47;13.00;;;2.10;99.90;;;;;;5052573;28;20971;-65
2022/12/09 00:05:25;;;;;;;22.23;12.37;;;2.00;99.90;;;;;;5052067;28;20493;-66
2022/12/09 00:07:52;;;;;;;23.83;12.70;;;2.00;99.90;;;;;;5052457;28;20450;-66
2022/12/09 00:10:18;;;;;;;29.10;13.50;;;2.00;99.90;;;;;;5051760;28;20454;-66
2022/12/09 00:12:46;;;;;;;28.57;13.33;;;2.00;99.90;;;;;;5052419;28;20971;-65
2022/12/09 00:15:13;;;;;;;24.07;12.60;;;2.00;99.90;;;;;;5052075;28;20468;-65
2022/12/09 00:17:40;;;;;;;23.77;13.30;;;2.00;99.90;;;;;;5051829;28;20460;-65
2022/12/09 00:20:08;;;;;;;25.43;13.07;;;2.00;99.90;;;;;;5052353;28;20449;-65
2022/12/09 00:22:34;;;;;;;23.07;13.13;;;2.00;99.90;;;;;;5052205;28;20449;-66
2022/12/09 00:25:01;;;;;;;24.70;13.23;;;2.00;99.90;;;;;;5051915;28;20492;-66
2022/12/09 00:27:28;;;;;;;24.50;13.17;;;1.90;99.90;;;;;;5052034;28;20448;-66
2022/12/09 00:29:56;;;;;;;24.47;12.80;;;1.90;99.90;;;;;;5051777;28;20449;-65
2022/12/09 00:32:22;;;;;;;28.30;14.77;;;1.90;99.90;;;;;;5052051;28;20449;-65
2022/12/09 00:34:49;;;;;;;24.47;12.63;;;1.90;99.90;;;;;;5051890;28;20471;-65
2022/12/09 00:37:15;;;;;;;29.40;13.13;;;1.90;99.90;;;;;;5052111;28;20443;-65
2022/12/09 00:39:42;;;;;;;21.93;12.63;;;1.90;99.90;;;;;;5051956;28;20449;-65
2022/12/09 00:42:09;;;;;;;26.73;14.20;;;1.90;99.90;;;;;;5051687;28;20467;-66
2022/12/09 00:44:35;;;;;;;28.63;14.50;;;1.90;99.90;;;;;;5051567;28;20610;-65
2022/12/09 00:47:03;;;;;;;23.30;13.80;;;1.90;99.90;;;;;;5051788;28;20448;-65
2022/12/09 00:49:30;;;;;;;32.90;16.13;;;1.90;99.90;;;;;;5051904;28;20479;-66
2022/12/09 00:51:57;;;;;;;29.70;15.20;;;1.80;99.90;;;;;;5051772;28;20454;-65
2022/12/09 00:54:23;;;;;;;35.43;15.33;;;1.80;99.90;;;;;;5051648;28;20473;-66
2022/12/09 00:56:50;;;;;;;30.40;14.83;;;1.90;99.90;;;;;;5051623;28;20507;-65
2022/12/09 00:59:17;;;;;;;27.57;14.57;;;1.90;99.90;;;;;;5051487;28;20449;-66
2022/12/09 01:01:43;;;;;;;27.83;13.93;;;1.90;99.90;;;;;;5051500;28;20533;-65
2022/12/09 01:04:12;;;;;;;32.10;16.10;;;1.90;99.90;;;;;;5051584;28;20519;-66
2022/12/09 01:06:39;;;;;;;30.03;14.63;;;2.00;99.90;;;;;;5051481;28;20819;-66
2022/12/09 01:09:05;;;;;;;28.07;13.83;;;2.00;99.90;;;;;;5052075;28;20471;-66
2022/12/09 01:11:32;;;;;;;26.73;14.53;;;2.00;99.90;;;;;;5051094;28;20859;-65
2022/12/09 01:14:01;;;;;;;30.07;14.93;;;2.00;99.90;;;;;;5051667;28;20832;-65
2022/12/09 01:16:29;;;;;;;25.93;15.43;;;2.00;99.90;;;;;;5050915;28;20929;-66
2022/12/09 01:18:59;;;;;;;27.47;14.53;;;2.00;99.90;;;;;;5051553;28;20441;-65
2022/12/09 01:21:28;;;;;;;33.10;15.27;;;2.00;99.90;;;;;;5054650;28;20457;-65
2022/12/09 01:23:55;;;;;;;30.97;15.80;;;2.00;99.90;;;;;;5055405;28;20461;-66
2022/12/09 01:26:22;;;;;;;29.70;15.50;;;2.00;99.90;;;;;;5055322;28;20521;-65
2022/12/09 01:28:51;;;;;;;28.03;15.40;;;2.00;99.90;;;;;;5055605;28;20457;-66
2022/12/09 01:31:20;;;;;;;32.13;16.20;;;2.00;99.90;;;;;;5055137;28;20492;-66
2022/12/09 01:33:47;;;;;;;31.50;16.13;;;2.00;99.90;;;;;;5055305;28;20445;-65
2022/12/09 01:36:16;;;;;;;37.47;16.50;;;1.90;99.90;;;;;;5054937;28;20442;-66
2022/12/09 01:38:45;;;;;;;30.77;15.70;;;1.90;99.90;;;;;;5055538;28;20448;-66
2022/12/09 01:41:12;;;;;;;29.03;16.40;;;1.80;99.90;;;;;;5055438;28;20456;-65
2022/12/09 01:43:39;;;;;;;30.40;14.63;;;1.80;99.90;;;;;;5055166;28;20452;-66
2022/12/09 01:46:07;;;;;;;33.50;15.50;;;1.80;99.90;;;;;;5054934;28;20481;-66
2022/12/09 01:48:37;;;;;;;27.37;14.93;;;1.80;99.90;;;;;;5054926;28;20860;-66
2022/12/09 01:51:09;;;;;;;30.53;14.70;;;1.80;99.90;;;;;;5054941;28;20448;-66
2022/12/09 01:53:41;;;;;;;25.80;14.47;;;1.80;99.90;;;;;;5055000;28;20449;-65
2022/12/09 01:56:14;;;;;;;30.00;14.00;;;1.80;99.90;;;;;;5054874;28;20460;-65
2022/12/09 01:58:41;;;;;;;31.63;15.23;;;1.80;99.90;;;;;;5055037;28;20451;-65
2022/12/09 02:01:08;;;;;;;27.50;14.17;;;1.90;99.90;;;;;;5054589;28;20480;-66
2022/12/09 02:03:35;;;;;;;30.30;15.20;;;1.80;99.90;;;;;;5054822;28;20502;-65
2022/12/09 02:06:01;;;;;;;26.70;13.13;;;1.90;99.90;;;;;;5054737;28;20645;-65
2022/12/09 02:08:28;;;;;;;26.03;13.97;;;1.90;99.90;;;;;;5054555;28;20968;-66
2022/12/09 02:11:05;;;;;;;30.53;14.30;;;1.90;99.90;;;;;;5054604;28;20456;-66
2022/12/09 02:13:41;;;;;;;28.20;14.87;;;1.90;99.90;;;;;;5054449;28;20502;-65
2022/12/09 02:16:11;;;;;;;26.73;13.87;;;1.90;99.90;;;;;;5054236;28;20511;-66
2022/12/09 02:18:42;;;;;;;24.57;14.10;;;1.90;99.90;;;;;;5054540;28;20449;-66
2022/12/09 02:21:12;;;;;;;28.13;15.20;;;1.90;99.90;;;;;;5054643;28;20795;-65
2022/12/09 02:23:42;;;;;;;28.60;15.50;;;1.90;99.90;;;;;;5054071;28;20445;-66
2022/12/09 02:26:19;;;;;;;33.23;17.30;;;1.90;99.90;;;;;;5054246;28;20485;-66
2022/12/09 02:29:31;;;;;;;30.10;16.00;;;1.90;99.90;;;;;;5054195;28;20444;-65
2022/12/09 02:32:29;;;;;;;35.47;18.27;;;1.90;99.90;;;;;;5042630;28;20445;-66
2022/12/09 02:35:01;;;;;;;40.20;17.90;;;1.90;99.90;;;;;;5054147;28;20468;-66
2022/12/09 02:37:32;;;;;;;44.00;19.40;;;1.90;99.90;;;;;;5054100;28;20447;-66
2022/12/09 02:40:04;;;;;;;46.80;19.23;;;1.90;99.90;;;;;;5054067;28;20445;-65
2022/12/09 02:42:34;;;;;;;46.43;20.77;;;1.90;99.90;;;;;;5053784;28;20449;-66
2022/12/09 02:45:04;;;;;;;51.87;20.90;;;1.90;99.90;;;;;;5053672;28;21004;-65
2022/12/09 02:47:34;;;;;;;50.23;21.00;;;1.90;99.90;;;;;;5054043;28;20457;-66
2022/12/09 02:50:05;;;;;;;58.27;22.80;;;1.90;99.90;;;;;;5054366;28;20519;-66
2022/12/09 02:52:33;;;;;;;64.73;23.07;;;1.90;99.90;;;;;;5053714;28;20450;-66
2022/12/09 02:55:02;;;;;;;49.10;21.50;;;1.90;99.90;;;;;;5053300;28;20492;-66
2022/12/09 02:57:31;;;;;;;62.33;22.10;;;1.90;99.90;;;;;;5053881;28;20456;-66
2022/12/09 02:59:58;;;;;;;51.50;21.20;;;1.90;99.90;;;;;;5053766;28;20472;-66
2022/12/09 03:02:28;;;;;;;61.40;23.30;;;1.80;99.90;;;;;;5053557;28;20448;-66
2022/12/09 03:05:09;;;;;;;63.10;23.00;;;1.80;99.90;;;;;;5053416;28;20473;-66
2022/12/09 03:07:41;;;;;;;63.50;22.90;;;1.80;99.90;;;;;;5053491;28;20452;-66
2022/12/09 03:10:14;;;;;;;52.37;22.90;;;1.80;99.90;;;;;;5053693;28;20865;-66
2022/12/09 03:12:47;;;;;;;54.27;21.87;;;1.80;99.90;;;;;;5053601;28;20457;-66
2022/12/09 03:15:17;;;;;;;63.00;23.83;;;1.80;99.90;;;;;;5053320;28;20465;-66
2022/12/09 03:17:45;;;;;;;56.33;22.60;;;1.80;99.90;;;;;;5053583;28;20449;-65
2022/12/09 03:20:17;;;;;;;61.50;23.30;;;1.80;99.90;;;;;;5053616;28;20440;-66
2022/12/09 03:22:46;;;;;;;55.07;22.13;;;1.90;99.90;;;;;;5053447;28;20820;-66
2022/12/09 03:25:17;;;;;;;50.87;21.13;;;1.90;99.90;;;;;;5053092;28;20461;-66
2022/12/09 03:27:49;;;;;;;53.77;21.90;;;1.90;99.90;;;;;;5053195;28;20453;-65
2022/12/09 03:30:17;;;;;;;48.77;22.13;;;1.90;99.90;;;;;;5053406;28;20860;-66
2022/12/09 03:32:45;;;;;;;59.97;22.87;;;1.90;99.90;;;;;;5053257;28;20538;-66
2022/12/09 03:35:19;;;;;;;52.20;20.90;;;1.90;99.90;;;;;;5053051;28;20549;-65
2022/12/09 03:37:48;;;;;;;55.80;21.80;;;1.80;99.90;;;;;;5053041;28;21012;-66
2022/12/09 03:40:21;;;;;;;61.00;22.30;;;1.80;99.90;;;;;;5052979;28;20445;-66
2022/12/09 03:42:54;;;;;;;51.37;20.40;;;1.90;99.90;;;;;;5052884;28;20812;-66
2022/12/09 03:45:23;;;;;;;58.60;23.53;;;1.90;99.90;;;;;;5052905;28;20554;-65
2022/12/09 03:47:50;;;;;;;51.63;20.90;;;1.90;99.90;;;;;;5052949;28;20449;-66
2022/12/09 03:50:20;;;;;;;55.37;21.90;;;1.90;99.90;;;;;;5052733;28;20967;-66
2022/12/09 03:52:51;;;;;;;61.13;23.57;;;1.90;99.90;;;;;;5052813;28;20661;-66
2022/12/09 03:55:26;;;;;;;57.60;21.90;;;1.90;99.90;;;;;;5052539;28;21051;-65
2022/12/09 03:57:57;;;;;;;54.43;22.80;;;1.90;99.90;;;;;;5053024;28;20578;-65
2022/12/09 04:00:23;;;;;;;52.57;23.30;;;1.90;99.90;;;;;;5052592;28;20458;-65
2022/12/09 04:02:50;;;;;;;58.30;22.87;;;1.90;99.90;;;;;;5052589;28;20457;-66
2022/12/09 04:05:18;;;;;;;55.97;22.53;;;1.90;99.90;;;;;;5052190;28;20482;-66
2022/12/09 04:07:45;;;;;;;56.20;22.77;;;2.00;99.90;;;;;;5052677;28;20818;-66
2022/12/09 04:10:12;;;;;;;49.47;21.10;;;1.90;99.90;;;;;;5052524;28;20495;-66
2022/12/09 04:12:39;;;;;;;56.40;22.47;;;2.00;99.90;;;;;;5052688;28;20452;-65
2022/12/09 04:15:08;;;;;;;60.70;24.87;;;1.90;99.90;;;;;;5052169;28;20557;-65
2022/12/09 04:17:35;;;;;;;64.73;25.10;;;1.90;99.90;;;;;;5051994;28;20445;-66
2022/12/09 04:20:02;;;;;;;67.87;23.90;;;1.90;99.90;;;;;;5052373;28;20507;-65
2022/12/09 04:22:30;;;;;;;58.03;24.23;;;1.90;99.90;;;;;;5052311;28;20453;-66
2022/12/09 04:24:57;;;;;;;56.83;23.00;;;1.90;99.90;;;;;;5052025;28;20466;-66
2022/12/09 04:27:24;;;;;;;55.47;24.30;;;1.90;99.90;;;;;;5052120;28;20492;-66
2022/12/09 04:29:51;;;;;;;63.23;25.37;;;1.90;99.90;;;;;;5052179;28;20449;-65
2022/12/09 04:32:18;;;;;;;62.13;23.77;;;1.90;99.90;;;;;;5051894;28;20502;-66
2022/12/09 04:34:44;;;;;;;59.77;23.47;;;1.90;99.90;;;;;;5052097;28;20469;-65
2022/12/09 04:37:11;;;;;;;58.67;23.60;;;1.90;99.90;;;;;;5051974;28;20463;-65
2022/12/09 04:39:40;;;;;;;55.27;22.27;;;1.90;99.90;;;;;;5052315;28;20450;-65
2022/12/09 04:42:07;;;;;;;58.73;23.47;;;1.90;99.90;;;;;;5051938;28;20477;-66
2022/12/09 04:44:34;;;;;;;59.80;23.97;;;1.90;99.90;;;;;;5052052;28;20468;-66
2022/12/09 04:47:00;;;;;;;55.37;23.27;;;1.90;99.90;;;;;;5051674;28;21025;-65
2022/12/09 04:49:27;;;;;;;49.23;22.70;;;1.90;99.90;;;;;;5051868;28;20479;-66
2022/12/09 04:51:54;;;;;;;59.53;22.83;;;1.90;99.90;;;;;;5051659;28;20453;-66
2022/12/09 04:54:20;;;;;;;55.17;22.67;;;1.90;99.90;;;;;;5051318;28;20469;-65
2022/12/09 04:56:49;;;;;;;57.00;24.23;;;1.90;99.90;;;;;;5051380;28;20503;-65
2022/12/09 04:59:16;;;;;;;55.90;22.97;;;2.00;99.90;;;;;;5051317;28;20453;-65
2022/12/09 05:01:42;;;;;;;60.03;23.73;;;1.90;99.90;;;;;;5051671;28;20449;-65
2022/12/09 05:04:09;;;;;;;62.20;23.67;;;2.00;99.90;;;;;;5051482;28;20510;-66
2022/12/09 05:06:36;;;;;;;57.17;22.83;;;2.00;99.90;;;;;;5051318;28;21035;-65
2022/12/09 05:09:03;;;;;;;53.67;23.30;;;1.90;99.90;;;;;;5051500;28;21004;-65
2022/12/09 05:11:30;;;;;;;55.43;22.10;;;1.90;99.90;;;;;;5051316;28;20460;-66
2022/12/09 05:13:58;;;;;;;53.00;22.90;;;1.90;99.90;;;;;;5051284;28;20882;-65
2022/12/09 05:16:24;;;;;;;56.93;23.53;;;2.00;99.90;;;;;;5051099;28;20817;-65
2022/12/09 05:18:51;;;;;;;62.67;23.07;;;1.90;99.90;;;;;;5051475;28;20449;-65
2022/12/09 05:21:20;;;;;;;51.47;22.93;;;1.90;99.90;;;;;;5051362;28;20449;-65
2022/12/09 05:23:47;;;;;;;52.93;21.57;;;1.90;99.90;;;;;;5051083;28;20450;-65
2022/12/09 05:26:16;;;;;;;60.57;22.37;;;1.90;99.90;;;;;;5051388;28;20491;-64
2022/12/09 05:28:42;;;;;;;59.80;22.17;;;1.90;99.90;;;;;;5051412;28;20449;-64
2022/12/09 05:31:13;;;;;;;61.57;23.67;;;1.90;99.90;;;;;;5051366;28;20821;-66
2022/12/09 05:33:40;;;;;;;55.43;22.87;;;1.90;99.90;;;;;;5051349;28;20450;-64
2022/12/09 05:36:09;;;;;;;50.20;22.10;;;1.80;99.90;;;;;;5050946;28;20442;-64
2022/12/09 05:38:36;;;;;;;56.27;21.80;;;1.90;99.90;;;;;;5051495;28;20449;-66
2022/12/09 05:41:03;;;;;;;57.53;23.30;;;1.90;99.90;;;;;;5051175;28;20452;-66
2022/12/09 05:43:30;;;;;;;56.27;22.90;;;1.90;99.90;;;;;;5051177;28;20866;-66
2022/12/09 05:45:57;;;;;;;63.47;23.60;;;1.90;99.90;;;;;;5051389;28;20516;-66
2022/12/09 05:48:25;;;;;;;55.50;22.60;;;1.80;99.90;;;;;;5051163;28;20459;-66
2022/12/09 05:50:59;;;;;;;58.93;24.10;;;1.80;99.90;;;;;;5050774;28;20448;-66
2022/12/09 05:53:26;;;;;;;65.20;23.07;;;1.80;99.90;;;;;;5051311;28;20476;-66
2022/12/09 05:55:53;;;;;;;61.80;22.87;;;1.80;99.90;;;;;;5050838;28;20482;-66
2022/12/09 05:58:20;;;;;;;67.53;24.43;;;1.80;99.90;;;;;;5051198;28;20452;-66
2022/12/09 06:00:47;;;;;;;67.90;26.30;;;1.80;99.90;;;;;;5050896;28;20472;-66
2022/12/09 06:03:14;;;;;;;66.23;24.10;;;1.90;99.90;;;;;;5050860;28;20453;-66
2022/12/09 06:05:42;;;;;;;57.10;22.50;;;1.90;99.90;;;;;;5050955;28;20474;-66
2022/12/09 06:08:09;;;;;;;64.27;24.60;;;1.90;99.90;;;;;;5053859;28;20488;-64
2022/12/09 06:10:38;;;;;;;61.73;24.30;;;1.90;99.90;;;;;;5054588;28;20453;-64
2022/12/09 06:13:06;;;;;;;62.87;25.07;;;1.90;99.90;;;;;;5054530;28;20789;-64
2022/12/09 06:15:33;;;;;;;61.37;24.57;;;1.90;99.90;;;;;;5053724;28;21004;-64
2022/12/09 06:18:00;;;;;;;70.13;24.17;;;2.00;99.90;;;;;;5054668;28;20448;-67
2022/12/09 06:20:27;;;;;;;62.43;24.70;;;2.00;99.90;;;;;;5054458;28;20456;-66
2022/12/09 06:22:55;;;;;;;63.70;24.30;;;2.00;99.90;;;;;;5054564;28;20487;-65
2022/12/09 06:25:22;;;;;;;64.63;24.53;;;2.00;99.90;;;;;;5054117;28;20472;-65
2022/12/09 06:27:49;;;;;;;64.33;24.23;;;2.00;99.90;;;;;;5054138;28;20837;-65
2022/12/09 06:30:16;;;;;;;67.83;24.60;;;2.00;99.90;;;;;;5054221;28;20933;-65
2022/12/09 06:32:43;;;;;;;56.13;22.40;;;2.00;99.90;;;;;;5054418;28;20448;-65
2022/12/09 06:35:09;;;;;;;65.37;23.17;;;2.00;99.90;;;;;;5053993;28;20480;-66
2022/12/09 06:37:36;;;;;;;55.30;22.93;;;2.00;99.90;;;;;;5054412;28;20452;-65
2022/12/09 06:40:05;;;;;;;66.00;23.23;;;2.00;99.90;;;;;;5054032;28;20946;-65
2022/12/09 06:42:32;;;;;;;60.30;22.77;;;2.00;99.90;;;;;;5053939;28;20449;-65
2022/12/09 06:44:58;;;;;;;69.57;25.50;;;2.00;99.90;;;;;;5054100;28;20469;-65
2022/12/09 06:47:25;;;;;;;61.33;24.33;;;2.10;99.90;;;;;;5054236;28;20485;-65
2022/12/09 06:49:52;;;;;;;62.63;24.33;;;2.10;99.90;;;;;;5053931;28;20457;-66
2022/12/09 06:52:18;;;;;;;60.23;24.37;;;2.10;99.90;;;;;;5053888;28;20452;-65
2022/12/09 06:54:45;;;;;;;58.13;23.67;;;2.10;99.90;;;;;;5053562;28;20464;-65
2022/12/09 06:57:13;;;;;;;61.23;24.83;;;2.10;99.90;;;;;;5053647;28;20584;-65
2022/12/09 06:59:40;;;;;;;56.27;22.53;;;2.00;99.90;;;;;;5053976;28;20500;-65
2022/12/09 07:02:09;;;;;;;56.57;22.40;;;2.00;99.90;;;;;;5053474;28;20450;-65
2022/12/09 07:04:35;;;;;;;59.70;23.57;;;2.00;99.90;;;;;;5053516;28;20864;-65
2022/12/09 07:07:02;;;;;;;58.37;25.20;;;2.00;99.90;;;;;;5053634;28;20477;-65
2022/12/09 07:09:29;;;;;;;57.50;24.13;;;2.00;99.90;;;;;;5053524;28;20449;-65
2022/12/09 07:11:55;;;;;;;64.30;25.27;;;2.00;99.90;;;;;;5053313;28;20446;-66
2022/12/09 07:14:23;;;;;;;58.73;21.90;;;2.00;99.90;;;;;;5053451;28;20465;-65
2022/12/09 07:16:50;;;;;;;59.27;24.13;;;2.00;99.90;;;;;;5052800;28;20446;-65
2022/12/09 07:19:18;;;;;;;73.40;24.77;;;2.00;99.90;;;;;;5052968;28;20947;-65
2022/12/09 07:21:45;;;;;;;59.63;23.53;;;2.00;99.90;;;;;;5052838;28;20818;-65
2022/12/09 07:24:12;;;;;;;54.60;21.83;;;2.00;99.90;;;;;;5053313;28;20473;-65
2022/12/09 07:26:39;;;;;;;57.40;25.10;;;2.00;99.90;;;;;;5052998;28;20567;-65
2022/12/09 07:29:07;;;;;;;57.60;24.13;;;2.00;99.90;;;;;;5053413;28;20453;-65
2022/12/09 07:31:35;;;;;;;65.27;25.03;;;2.00;99.90;;;;;;5052861;28;20449;-65
2022/12/09 07:34:03;;;;;;;63.70;24.80;;;2.00;99.90;;;;;;5052778;28;20547;-65
2022/12/09 07:36:31;;;;;;;65.93;23.97;;;2.00;99.90;;;;;;5052824;28;20452;-65
2022/12/09 07:39:00;;;;;;;68.33;24.00;;;2.00;99.90;;;;;;5053236;28;20449;-65
2022/12/09 07:41:27;;;;;;;66.30;25.10;;;2.10;99.90;;;;;;5053124;28;20500;-65
2022/12/09 07:43:54;;;;;;;63.90;23.90;;;2.10;99.90;;;;;;5052837;28;20476;-65
2022/12/09 07:46:22;;;;;;;64.60;22.97;;;2.10;99.90;;;;;;5052601;28;20476;-65
2022/12/09 07:48:50;;;;;;;65.40;24.53;;;2.10;99.90;;;;;;5052369;28;20445;-65
2022/12/09 07:51:17;;;;;;;64.13;22.70;;;2.00;99.90;;;;;;5052871;28;20449;-65
2022/12/09 07:53:45;;;;;;;64.67;24.90;;;2.00;99.90;;;;;;5052789;28;20818;-66
2022/12/09 07:56:14;;;;;;;69.43;23.77;;;2.00;99.90;;;;;;5052412;28;20471;-65
2022/12/09 07:58:41;;;;;;;66.57;25.40;;;2.00;99.90;;;;;;5052685;28;20524;-65
2022/12/09 08:01:09;;;;;;;77.00;26.00;;;2.00;99.90;;;;;;5052304;28;20453;-66
2022/12/09 08:03:36;;;;;;;60.73;24.17;;;2.00;99.90;;;;;;5052734;28;20655;-66
2022/12/09 08:06:04;;;;;;;69.53;24.03;;;2.00;99.90;;;;;;5052431;28;20490;-66
2022/12/09 08:08:32;;;;;;;70.20;24.63;;;2.10;99.90;;;;;;5052453;28;21019;-66
2022/12/09 08:11:07;;;;;;;61.37;23.57;;;2.10;99.90;;;;;;5052415;28;20453;-66
2022/12/09 08:13:33;;;;;;;62.17;23.33;;;2.10;99.90;;;;;;5052313;28;20537;-66
2022/12/09 08:16:02;;;;;;;61.83;24.40;;;2.20;99.90;;;;;;5051706;28;20456;-66
2022/12/09 08:18:29;;;;;;;61.00;23.00;;;2.20;99.90;;;;;;5052633;28;20450;-66
2022/12/09 08:20:55;;;;;;;58.40;22.73;;;2.30;99.90;;;;;;5052145;28;20458;-66
2022/12/09 08:23:23;;;;;;;56.73;21.53;;;2.30;99.90;;;;;;5052133;28;20453;-66
2022/12/09 08:25:53;;;;;;;59.53;23.33;;;2.40;99.90;;;;;;5051616;28;20465;-65
2022/12/09 08:28:20;;;;;;;67.17;23.60;;;2.50;99.90;;;;;;5052413;28;20481;-66
2022/12/09 08:30:46;;;;;;;59.97;22.87;;;2.50;99.90;;;;;;5051322;28;20450;-65
2022/12/09 08:33:13;;;;;;;64.77;23.60;;;2.50;99.90;;;;;;5052052;28;20506;-66
2022/12/09 08:35:40;;;;;;;56.90;23.80;;;2.50;99.90;;;;;;5051732;28;20899;-66
2022/12/09 08:38:07;;;;;;;63.40;23.83;;;2.40;99.90;;;;;;5051792;28;20441;-66
2022/12/09 08:40:35;;;;;;;57.93;21.93;;;2.40;99.90;;;;;;5051709;28;20453;-66
2022/12/09 08:43:03;;;;;;;61.00;23.00;;;2.40;99.90;;;;;;5051923;28;20449;-65
2022/12/09 08:45:30;;;;;;;53.93;21.90;;;2.40;99.90;;;;;;5051542;28;20469;-66
2022/12/09 08:47:56;;;;;;;61.30;21.90;;;2.40;99.90;;;;;;5051657;28;20482;-66
2022/12/09 08:50:23;;;;;;;57.97;22.27;;;2.40;99.90;;;;;;5051633;28;20450;-66
2022/12/09 08:52:50;;;;;;;62.43;23.43;;;2.40;99.90;;;;;;5051457;28;20445;-66
2022/12/09 08:55:16;;;;;;;57.13;21.80;;;2.40;99.90;;;;;;5051591;28;20546;-66
2022/12/09 08:57:44;;;;;;;59.57;23.00;;;2.40;99.90;;;;;;5051742;28;20460;-66
2022/12/09 09:00:12;;;;;;;59.87;23.50;;;2.40;99.90;;;;;;5051716;28;20445;-66
2022/12/09 09:02:39;;;;;;;64.50;23.23;;;2.40;99.90;;;;;;5051294;28;20445;-66
2022/12/09 09:05:06;;;;;;;60.27;24.20;;;2.40;99.90;;;;;;5051484;28;20718;-65
2022/12/09 09:07:32;;;;;;;65.37;24.20;;;2.40;99.90;;;;;;5051244;28;20484;-66
2022/12/09 09:09:59;;;;;;;71.27;24.77;;;2.50;99.90;;;;;;5051493;28;20453;-66
2022/12/09 09:12:26;;;;;;;66.73;23.43;;;2.60;99.90;;;;;;5051476;28;20461;-66
2022/12/09 09:14:54;;;;;;;65.43;23.13;;;2.80;99.90;;;;;;5051235;28;21012;-66
2022/12/09 09:17:21;;;;;;;62.10;23.83;;;3.00;99.90;;;;;;5051086;28;20470;-66
2022/12/09 09:19:48;;;;;;;70.20;23.60;;;3.10;99.90;;;;;;5051412;28;20457;-66
2022/12/09 09:22:15;;;;;;;61.10;23.97;;;3.20;99.90;;;;;;5051428;28;20458;-66
2022/12/09 09:24:43;;;;;;;56.23;21.20;;;3.20;99.90;;;;;;5051488;28;20872;-66
2022/12/09 09:27:09;;;;;;;49.77;20.40;;;3.10;99.90;;;;;;5051232;28;20907;-66
2022/12/09 09:29:36;;;;;;;61.77;23.80;;;3.00;99.90;;;;;;5051417;28;20457;-67
2022/12/09 09:32:04;;;;;;;50.67;20.20;;;3.00;99.90;;;;;;5050949;28;20500;-66
2022/12/09 09:34:31;;;;;;;52.17;21.93;;;3.00;99.90;;;;;;5051707;28;20469;-66
2022/12/09 09:36:58;;;;;;;51.53;19.47;;;3.00;99.90;;;;;;5051272;28;20489;-66
2022/12/09 09:39:25;;;;;;;57.67;21.10;;;3.00;99.90;;;;;;5051558;28;20454;-66
2022/12/09 09:41:55;;;;;;;50.60;20.60;;;3.00;99.90;;;;;;5053596;28;20457;-66
2022/12/09 09:44:25;;;;;;;47.60;19.60;;;2.90;99.90;;;;;;5055232;28;20469;-66
2022/12/09 09:46:53;;;;;;;51.93;20.90;;;2.90;99.90;;;;;;5055311;28;20457;-66
2022/12/09 09:49:29;;;;;;;47.20;19.60;;;2.90;99.90;;;;;;5055181;28;20810;-66
2022/12/09 09:51:56;;;;;;;46.60;19.60;;;2.90;99.90;;;;;;5055006;28;20454;-66
2022/12/09 09:54:23;;;;;;;46.90;20.20;;;2.90;99.90;;;;;;5054950;28;20866;-66
2022/12/09 09:56:56;;;;;;;45.87;20.40;;;2.80;99.90;;;;;;5054913;28;20805;-66
2022/12/09 09:59:36;;;;;;;47.53;19.60;;;2.70;99.90;;;;;;5055207;28;20437;-66
2022/12/09 10:02:16;;;;;;;42.30;18.20;;;2.70;99.90;;;;;;5054848;28;20452;-66
2022/12/09 10:04:58;;;;;;;39.23;18.90;;;2.70;99.90;;;;;;5054913;28;20841;-66
2022/12/09 10:07:33;;;;;;;34.73;15.90;;;2.70;99.90;;;;;;5054382;28;20894;-66
2022/12/09 10:10:09;;;;;;;38.90;17.83;;;2.70;99.90;;;;;;5054877;28;20449;-66
2022/12/09 10:12:43;;;;;;;37.63;16.80;;;2.80;99.90;;;;;;5054799;28;20454;-67
2022/12/09 10:15:13;;;;;;;36.33;17.30;;;2.80;99.90;;;;;;5054407;28;20485;-66
2022/12/09 10:17:47;;;;;;;47.27;19.13;;;2.90;99.90;;;;;;5054400;28;20800;-66
2022/12/09 10:20:19;;;;;;;45.03;18.90;;;2.90;99.90;;;;;;5054666;28;20445;-66
2022/12/09 10:22:51;;;;;;;42.40;19.17;;;2.80;99.90;;;;;;5054309;28;20911;-66
2022/12/09 10:25:21;;;;;;;44.40;20.33;;;2.70;99.90;;;;;;5054321;28;20476;-66
2022/12/09 10:27:53;;;;;;;45.17;18.90;;;2.60;99.90;;;;;;5054414;28;20996;-66
2022/12/09 10:30:21;;;;;;;43.03;19.40;;;2.50;99.90;;;;;;5054435;28;20449;-66
2022/12/09 10:32:48;;;;;;;47.47;19.00;;;2.50;99.90;;;;;;5054068;28;20996;-66
2022/12/09 10:35:18;;;;;;;48.77;19.27;;;2.40;99.90;;;;;;5054258;28;20477;-66
2022/12/09 10:37:46;;;;;;;44.37;19.63;;;2.30;99.90;;;;;;5054241;28;20452;-66
2022/12/09 10:40:23;;;;;;;45.03;20.30;;;2.30;99.90;;;;;;5054097;28;20453;-67
2022/12/09 10:45:43;;;;;;;45.87;20.33;;;2.40;99.90;;;;;;5054149;28;20451;-66
2022/12/09 10:48:19;;;;;;;44.27;20.30;;;2.40;99.90;;;;;;5053916;28;20488;-66
2022/12/09 10:50:54;;;;;;;41.13;18.97;;;2.40;99.90;;;;;;5054268;28;20451;-66
2022/12/09 10:53:21;;;;;;;41.80;18.27;;;2.40;99.90;;;;;;5053301;28;20445;-66
2022/12/09 10:55:51;;;;;;;38.67;18.90;;;2.40;99.90;;;;;;5053729;28;20481;-67
2022/12/09 10:58:20;;;;;;;37.77;18.10;;;2.50;99.90;;;;;;5053887;28;20451;-66
2022/12/09 11:01:05;;;;;;;36.67;17.77;;;2.50;99.90;;;;;;5053735;28;20952;-66
2022/12/09 11:03:34;;;;;;;44.67;19.50;;;2.50;99.90;;;;;;5053814;28;20479;-66
2022/12/09 11:06:10;;;;;;;43.40;19.43;;;2.50;99.90;;;;;;5053769;28;20450;-66
2022/12/09 11:08:40;;;;;;;39.07;18.47;;;2.50;99.90;;;;;;5053553;28;21011;-66
2022/12/09 11:11:07;;;;;;;44.07;19.57;;;2.50;99.90;;;;;;5053625;28;20502;-67
2022/12/09 11:13:40;;;;;;;37.73;19.03;;;2.60;99.90;;;;;;5053409;28;20499;-66
2022/12/09 11:16:07;;;;;;;43.57;19.07;;;2.60;99.90;;;;;;5053248;28;20468;-66
2022/12/09 11:18:43;;;;;;;42.20;17.17;;;2.60;99.90;;;;;;5053447;28;20456;-66
2022/12/09 11:21:30;;;;;;;37.60;18.20;;;2.50;99.90;;;;;;5053458;28;20483;-66
2022/12/09 11:23:58;;;;;;;46.43;18.57;;;2.50;99.90;;;;;;5053223;28;20465;-66
2022/12/09 11:26:26;;;;;;;40.60;17.40;;;2.50;99.90;;;;;;5053382;28;20445;-66
2022/12/09 11:29:02;;;;;;;37.40;18.23;;;2.50;99.90;;;;;;5053210;28;20492;-66
2022/12/09 11:31:32;;;;;;;45.47;20.40;;;2.50;99.90;;;;;;5053391;28;20458;-66
2022/12/09 11:34:01;;;;;;;34.23;17.50;;;2.50;99.90;;;;;;5053039;28;20465;-66
2022/12/09 11:36:32;;;;;;;38.87;17.97;;;2.60;99.90;;;;;;5053231;28;20456;-66
2022/12/09 11:39:17;;;;;;;35.13;15.70;;;2.70;99.90;;;;;;5053202;28;20849;-66
2022/12/09 11:44:33;;;;;;;36.77;17.83;;;2.70;99.90;;;;;;5052725;28;20445;-66
2022/12/09 11:47:04;;;;;;;30.40;15.43;;;2.70;99.90;;;;;;5052900;28;21125;-66
2022/12/09 11:49:35;;;;;;;40.73;15.43;;;2.70;99.90;;;;;;5052960;28;20489;-66
2022/12/09 11:52:07;;;;;;;33.47;16.10;;;2.70;99.90;;;;;;5052897;28;20795;-66
2022/12/09 11:54:41;;;;;;;31.47;14.93;;;2.60;99.90;;;;;;5052761;28;20527;-66
2022/12/09 11:57:17;;;;;;;38.00;15.80;;;2.60;99.90;;;;;;5052417;28;20838;-66
2022/12/09 11:59:50;;;;;;;30.77;15.27;;;2.60;99.90;;;;;;5052831;28;20445;-66
2022/12/09 12:02:25;;;;;;;31.60;15.07;;;2.60;99.90;;;;;;5052677;28;20450;-66
2022/12/09 12:04:58;;;;;;;32.67;14.87;;;2.70;99.90;;;;;;5052420;28;20460;-66
2022/12/09 12:07:35;;;;;;;30.73;14.63;;;2.70;99.90;;;;;;5052407;28;20817;-66
2022/12/09 12:10:03;;;;;;;29.90;14.93;;;2.80;99.90;;;;;;5052722;28;20842;-66
2022/12/09 12:12:39;;;;;;;32.60;17.37;;;2.70;99.90;;;;;;5052303;28;20448;-66
2022/12/09 12:15:14;;;;;;;37.63;17.73;;;2.70;99.90;;;;;;5052242;28;20514;-66
2022/12/09 12:17:43;;;;;;;39.47;16.83;;;2.70;99.90;;;;;;5052073;28;20789;-66
2022/12/09 12:20:12;;;;;;;46.00;17.97;;;2.60;99.90;;;;;;5052168;28;21002;-66
2022/12/09 12:23:02;;;;;;;44.67;18.67;;;2.60;99.90;;;;;;5052369;28;20446;-66
2022/12/09 12:25:38;;;;;;;43.17;17.73;;;2.60;99.90;;;;;;5052061;28;20472;-66
2022/12/09 12:28:20;;;;;;;44.30;19.20;;;2.60;99.90;;;;;;5052043;28;20858;-67
2022/12/09 12:30:53;;;;;;;43.93;18.97;;;2.60;99.90;;;;;;5052159;28;21081;-66
2022/12/09 12:33:39;;;;;;;44.37;19.40;;;2.60;99.90;;;;;;5052166;28;20465;-66
2022/12/09 12:36:14;;;;;;;43.00;18.20;;;2.60;99.90;;;;;;5051882;28;20508;-66
2022/12/09 12:38:54;;;;;;;39.87;18.77;;;2.60;99.90;;;;;;5052109;28;20502;-66
2022/12/09 12:41:27;;;;;;;37.17;17.87;;;2.80;99.90;;;;;;5052036;28;20758;-66
2022/12/09 12:46:58;;;;;;;35.90;16.90;;;3.40;99.90;;;;;;5051750;28;20430;-66
2022/12/09 12:49:51;;;;;;;35.70;15.40;;;3.70;99.90;;;;;;5052096;28;20500;-66
2022/12/09 12:52:28;;;;;;;35.20;16.30;;;3.80;99.90;;;;;;5051706;28;20460;-66
2022/12/09 12:55:04;;;;;;;31.10;15.70;;;4.00;99.90;;;;;;5051252;28;20492;-66